Time;durP1;ratioP1;P1;durP2;ratioP2;P2;SDS_P1;SDS_P2;PMS_P1;PMS_P2;Temp;Humidity;BMP_temperature;BMP_pressure;BME280_temperature;BME280_humidity;BME280_pressure;Samples;Min_cycle;Max_cycle;Signal;HPM_P1;HPM_P2
2023/03/03 00:00:23;;;;;;;15.70;11.37;;;;;;;1.07;98.58;101291.41;5037836;28;20222;-79
2023/03/03 00:02:50;;;;;;;16.77;11.53;;;;;;;1.03;97.73;101293.03;5038252;28;20206;-79
2023/03/03 00:05:17;;;;;;;13.10;10.27;;;;;;;1.06;98.55;101287.97;5038004;28;20684;-79
2023/03/03 00:07:44;;;;;;;13.80;10.27;;;;;;;1.03;98.31;101275.03;5038272;28;20266;-78
2023/03/03 00:10:11;;;;;;;12.87;11.33;;;;;;;1.06;98.03;101269.97;5037450;28;20235;-79
2023/03/03 00:12:46;;;;;;;12.30;9.53;;;;;;;1.03;97.47;101271.56;5037530;28;20267;-79
2023/03/03 00:15:18;;;;;;;13.00;10.20;;;;;;;1.04;97.30;101294.75;5037293;28;20213;-79
2023/03/03 00:17:45;;;;;;;12.30;9.93;;;;;;;1.02;96.65;101298.97;5037566;28;20249;-78
2023/03/03 00:20:34;;;;;;;12.53;10.07;;;;;;;0.95;97.34;101297.91;5038181;28;20352;-79
2023/03/03 00:23:15;;;;;;;13.80;10.03;;;;;;;1.08;97.42;101299.19;5037617;28;20204;-79
2023/03/03 00:25:44;;;;;;;12.70;10.27;;;;;;;1.08;96.99;101303.47;5041570;28;20264;-78
2023/03/03 00:28:22;;;;;;;12.63;10.53;;;;;;;1.08;97.28;101311.19;5040517;28;20241;-79
2023/03/03 00:30:50;;;;;;;12.97;10.17;;;;;;;1.06;96.39;101312.81;5040576;28;20291;-79
2023/03/03 00:33:27;;;;;;;10.70;8.97;;;;;;;1.08;96.52;101312.03;5041100;28;20262;-79
2023/03/03 00:35:54;;;;;;;11.03;9.80;;;;;;;1.05;96.69;101314.53;5040433;28;20286;-79
2023/03/03 00:38:21;;;;;;;14.67;10.63;;;;;;;1.03;96.35;101311.03;5041403;28;20676;-79
2023/03/03 00:40:48;;;;;;;17.83;10.37;;;;;;;1.11;96.73;101318.97;5041271;28;20209;-79
2023/03/03 00:43:19;;;;;;;12.90;10.70;;;;;;;1.06;96.89;101315.38;5040632;28;20264;-79
2023/03/03 00:45:47;;;;;;;14.00;10.10;;;;;;;1.14;96.95;101313.94;5041520;28;20240;-78
2023/03/03 00:48:23;;;;;;;13.60;10.33;;;;;;;1.13;97.04;101317.31;5040839;28;20200;-78
2023/03/03 00:50:50;;;;;;;11.20;10.03;;;;;;;1.07;96.98;101319.69;5040451;28;20272;-78
2023/03/03 00:53:18;;;;;;;11.43;9.90;;;;;;;0.93;97.94;101304.69;5040390;28;20199;-79
2023/03/03 00:55:46;;;;;;;14.10;10.40;;;;;;;0.96;97.54;101299.66;5040961;28;20219;-79
2023/03/03 00:58:13;;;;;;;16.40;10.47;;;;;;;1.02;97.41;101304.13;5040625;28;20205;-79
2023/03/03 01:00:40;;;;;;;12.47;10.20;;;;;;;1.01;98.00;101302.38;5040637;28;20688;-78
2023/03/03 01:03:09;;;;;;;12.43;10.17;;;;;;;0.97;97.83;101300.50;5040065;28;20303;-79
2023/03/03 01:05:37;;;;;;;13.63;10.23;;;;;;;0.97;97.67;101309.13;5040962;28;20208;-78
2023/03/03 01:08:03;;;;;;;14.37;10.37;;;;;;;0.97;97.62;101303.97;5040805;28;20204;-78
2023/03/03 01:10:34;;;;;;;13.10;10.80;;;;;;;0.93;98.01;101302.13;5039768;28;20230;-79
2023/03/03 01:13:00;;;;;;;12.23;10.93;;;;;;;0.93;97.88;101297.00;5039986;28;20210;-79
2023/03/03 01:15:27;;;;;;;12.40;11.07;;;;;;;0.95;98.01;101297.91;5039939;28;20622;-79
2023/03/03 01:17:55;;;;;;;13.10;10.70;;;;;;;0.93;97.92;101298.66;5040843;28;20262;-79
2023/03/03 01:20:22;;;;;;;18.00;11.47;;;;;;;0.94;98.66;101298.72;5040465;28;20244;-79
2023/03/03 01:22:50;;;;;;;13.87;11.73;;;;;;;0.88;98.71;101287.38;5040185;28;20258;-78
2023/03/03 01:25:16;;;;;;;11.27;9.73;;;;;;;0.92;98.34;101273.78;5040143;28;20204;-79
2023/03/03 01:27:43;;;;;;;16.57;10.70;;;;;;;0.94;98.63;101269.59;5040123;28;20216;-79
2023/03/03 01:30:10;;;;;;;13.30;9.67;;;;;;;0.93;98.15;101280.66;5039632;28;20270;-78
2023/03/03 01:32:37;;;;;;;10.90;9.60;;;;;;;0.91;97.83;101285.78;5039945;28;20258;-79
2023/03/03 01:35:03;;;;;;;11.73;10.33;;;;;;;0.87;98.00;101278.75;5038609;28;20207;-79
2023/03/03 01:37:30;;;;;;;12.03;10.73;;;;;;;0.89;97.50;101286.53;5039156;28;20212;-79
2023/03/03 01:39:58;;;;;;;13.13;10.13;;;;;;;0.87;97.02;101304.47;5039235;28;20614;-78
2023/03/03 01:42:28;;;;;;;12.20;9.57;;;;;;;0.85;97.12;101302.66;5039621;28;20203;-78
2023/03/03 01:45:12;;;;;;;13.63;9.67;;;;;;;0.79;97.54;101321.31;5039516;28;20208;-78
2023/03/03 01:47:39;;;;;;;12.40;9.60;;;;;;;0.77;96.77;101316.16;5039375;28;20270;-78
2023/03/03 01:50:13;;;;;;;13.87;9.53;;;;;;;0.71;97.49;101309.91;5039134;28;20323;-79
2023/03/03 01:52:43;;;;;;;15.43;10.83;;;;;;;0.76;97.26;101303.25;5039445;28;20216;-79
2023/03/03 01:55:15;;;;;;;14.03;11.10;;;;;;;0.77;96.85;101303.28;5039605;28;20207;-79
2023/03/03 01:57:45;;;;;;;15.20;11.27;;;;;;;0.78;96.75;101301.59;5039189;28;20263;-78
2023/03/03 02:00:15;;;;;;;15.47;11.50;;;;;;;0.81;97.20;101296.53;5038893;28;20285;-78
2023/03/03 02:02:42;;;;;;;13.80;10.70;;;;;;;0.84;97.25;101294.09;5038740;28;20681;-79
2023/03/03 02:05:10;;;;;;;12.23;9.67;;;;;;;0.90;96.88;101309.72;5038882;28;20615;-79
2023/03/03 02:07:38;;;;;;;12.00;9.33;;;;;;;0.91;95.96;101331.16;5039294;28;20257;-79
2023/03/03 02:10:07;;;;;;;14.07;9.90;;;;;;;0.87;95.64;101349.84;5038930;28;20227;-78
2023/03/03 02:12:38;;;;;;;9.97;8.87;;;;;;;0.85;95.76;101349.78;5036742;28;20314;-78
2023/03/03 02:15:16;;;;;;;12.10;9.60;;;;;;;0.68;96.97;101330.34;5036741;28;20211;-78
2023/03/03 02:17:42;;;;;;;12.83;10.03;;;;;;;0.77;97.36;101328.09;5036862;28;20196;-77
2023/03/03 02:20:16;;;;;;;12.37;10.37;;;;;;;0.75;96.85;101334.88;5036777;28;20229;-78
2023/03/03 02:22:50;;;;;;;15.03;10.10;;;;;;;0.74;96.60;101331.44;5035704;28;20864;-77
2023/03/03 02:25:29;;;;;;;19.30;11.50;;;;;;;0.73;96.14;101339.09;5033952;28;20209;-78
2023/03/03 02:27:56;;;;;;;28.50;12.70;;;;;;;0.67;96.26;101324.31;5036276;28;20236;-79
2023/03/03 02:30:24;;;;;;;31.30;13.80;;;;;;;0.65;96.81;101318.25;5037641;28;20315;-78
2023/03/03 02:32:51;;;;;;;34.00;16.20;;;;;;;0.67;97.34;101308.91;5038649;28;20234;-78
2023/03/03 02:35:30;;;;;;;41.63;16.80;;;;;;;0.75;96.73;101311.75;5038003;28;20628;-77
2023/03/03 02:38:02;;;;;;;43.33;16.37;;;;;;;0.78;97.22;101314.44;5037528;28;20268;-78
2023/03/03 02:40:33;;;;;;;42.70;16.07;;;;;;;0.72;96.60;101314.22;5038456;28;20230;-78
2023/03/03 02:43:03;;;;;;;51.13;17.97;;;;;;;0.70;97.31;101296.19;5037982;28;20209;-78
2023/03/03 02:45:30;;;;;;;36.90;15.97;;;;;;;0.70;96.65;101283.34;5037731;28;20213;-78
2023/03/03 02:47:56;;;;;;;43.00;16.87;;;;;;;0.77;96.50;101294.69;5037140;28;20637;-78
2023/03/03 02:50:23;;;;;;;43.50;15.73;;;;;;;0.77;95.97;101311.00;5037038;28;20227;-78
2023/03/03 02:52:49;;;;;;;38.87;16.93;;;;;;;0.76;96.67;101313.50;5037520;28;20217;-78
2023/03/03 02:55:16;;;;;;;41.87;16.03;;;;;;;0.78;96.64;101315.31;5037872;28;20613;-78
2023/03/03 02:57:42;;;;;;;54.53;16.90;;;;;;;0.31;95.86;101329.88;5037766;28;20207;-78
2023/03/03 03:00:11;;;;;;;39.13;16.63;;;;;;;0.44;96.19;101312.34;5037171;28;20301;-78
2023/03/03 03:02:37;;;;;;;42.33;16.77;;;;;;;0.55;96.59;101308.47;5037593;28;20666;-78
2023/03/03 03:05:04;;;;;;;42.63;15.37;;;;;;;0.60;96.51;101317.25;5036914;28;20620;-78
2023/03/03 03:07:31;;;;;;;29.93;13.37;;;;;;;0.61;96.08;101330.94;5037539;28;20679;-78
2023/03/03 03:09:57;;;;;;;37.80;15.77;;;;;;;0.63;95.83;101331.88;5037449;28;20277;-77
2023/03/03 03:12:24;;;;;;;34.30;16.27;;;;;;;0.61;95.80;101325.81;5037449;28;20722;-79
2023/03/03 03:14:50;;;;;;;46.23;16.13;;;;;;;0.65;96.25;101327.66;5037066;28;20211;-79
2023/03/03 03:17:18;;;;;;;44.43;15.90;;;;;;;0.55;95.29;101340.16;5037408;28;20267;-78
2023/03/03 03:19:44;;;;;;;31.87;14.57;;;;;;;0.41;95.79;101323.38;5037877;28;20711;-79
2023/03/03 03:22:11;;;;;;;42.47;15.50;;;;;;;0.46;97.15;101303.03;5036910;28;20245;-78
2023/03/03 03:24:37;;;;;;;36.13;14.00;;;;;;;0.46;96.66;101290.19;5037802;28;20211;-78
2023/03/03 03:27:04;;;;;;;29.03;12.13;;;;;;;0.42;97.14;101286.63;5037711;28;20216;-78
2023/03/03 03:29:30;;;;;;;20.07;12.43;;;;;;;0.52;97.22;101287.84;5037611;28;20229;-78
2023/03/03 03:31:56;;;;;;;24.00;12.10;;;;;;;0.52;97.22;101287.84;5037148;28;20701;-78
2023/03/03 03:34:24;;;;;;;28.30;11.93;;;;;;;0.59;96.52;101294.91;5037877;28;20234;-78
2023/03/03 03:36:51;;;;;;;23.83;12.20;;;;;;;0.55;96.71;101296.50;5037384;28;20211;-78
2023/03/03 03:39:17;;;;;;;21.43;12.03;;;;;;;0.49;96.37;101298.84;5037671;28;20240;-79
2023/03/03 03:41:44;;;;;;;15.80;10.97;;;;;;;0.58;96.69;101306.91;5037344;28;20213;-79
2023/03/03 03:44:11;;;;;;;20.27;11.77;;;;;;;0.65;95.45;101325.09;5037658;28;20486;-79
2023/03/03 03:46:37;;;;;;;14.87;10.67;;;;;;;0.57;95.62;101347.94;5037780;28;20242;-79
2023/03/03 03:49:04;;;;;;;18.73;11.70;;;;;;;0.58;95.47;101344.56;5037984;28;20235;-79
2023/03/03 03:51:34;;;;;;;20.10;11.47;;;;;;;0.53;95.17;101343.50;5038001;28;20229;-79
2023/03/03 03:54:00;;;;;;;25.03;11.63;;;;;;;0.54;95.27;101327.28;5037321;28;20576;-79
2023/03/03 03:56:27;;;;;;;24.77;12.53;;;;;;;0.48;95.69;101327.06;5038292;28;20232;-78
2023/03/03 03:58:53;;;;;;;23.87;12.17;;;;;;;0.46;95.91;101318.44;5037482;28;20650;-79
2023/03/03 04:01:19;;;;;;;30.07;13.63;;;;;;;0.44;97.48;101309.78;5040971;28;20269;-79
2023/03/03 04:03:47;;;;;;;32.97;14.63;;;;;;;0.48;97.50;101296.25;5041738;28;20208;-79
2023/03/03 04:06:14;;;;;;;33.33;14.93;;;;;;;0.51;97.06;101288.63;5041796;28;20214;-79
2023/03/03 04:08:42;;;;;;;35.87;15.10;;;;;;;0.54;96.88;101287.06;5041299;28;20213;-78
2023/03/03 04:11:08;;;;;;;35.33;14.50;;;;;;;0.54;97.03;101292.19;5041349;28;20268;-79
2023/03/03 04:13:34;;;;;;;36.80;15.73;;;;;;;0.66;97.10;101294.31;5041561;28;20649;-79
2023/03/03 04:16:01;;;;;;;46.90;16.83;;;;;;;0.65;97.05;101312.25;5040933;28;20739;-79
2023/03/03 04:18:27;;;;;;;39.07;17.00;;;;;;;0.70;96.46;101328.72;5041011;28;20206;-79
2023/03/03 04:20:54;;;;;;;32.47;14.63;;;;;;;0.71;96.03;101341.59;5041217;28;20560;-79
2023/03/03 04:23:21;;;;;;;20.10;12.60;;;;;;;0.72;94.76;101357.91;5040855;28;20659;-78
2023/03/03 04:25:49;;;;;;;17.43;11.07;;;;;;;0.75;94.87;101371.75;5040866;28;20203;-78
2023/03/03 04:28:16;;;;;;;14.70;9.87;;;;;;;0.72;94.21;101389.63;5040442;28;20210;-77
2023/03/03 04:30:42;;;;;;;15.07;9.60;;;;;;;0.68;94.01;101385.19;5041055;28;20236;-78
2023/03/03 04:33:09;;;;;;;13.73;9.70;;;;;;;0.69;94.48;101386.91;5041458;28;20286;-79
2023/03/03 04:35:35;;;;;;;13.07;10.20;;;;;;;0.67;94.64;101385.13;5041056;28;20287;-78
2023/03/03 04:38:02;;;;;;;12.30;9.53;;;;;;;0.61;94.95;101372.06;5041053;28;20215;-79
2023/03/03 04:40:28;;;;;;;11.13;8.73;;;;;;;0.67;95.28;101365.44;5041570;28;20275;-79
2023/03/03 04:42:56;;;;;;;12.37;9.40;;;;;;;0.71;94.79;101371.56;5040570;28;20287;-78
2023/03/03 04:45:22;;;;;;;11.67;9.00;;;;;;;0.75;94.68;101370.84;5040512;28;20257;-79
2023/03/03 04:47:49;;;;;;;12.63;9.30;;;;;;;0.73;95.08;101381.09;5041512;28;20207;-79
2023/03/03 04:50:15;;;;;;;12.63;9.33;;;;;;;0.72;94.70;101386.19;5040423;28;20294;-79
2023/03/03 04:52:42;;;;;;;12.03;8.97;;;;;;;0.74;94.70;101376.81;5040745;28;20693;-79
2023/03/03 04:55:09;;;;;;;12.20;9.43;;;;;;;0.69;95.87;101363.78;5039940;28;20208;-79
2023/03/03 04:57:36;;;;;;;13.20;9.50;;;;;;;0.76;95.90;101354.63;5041135;28;20243;-78
2023/03/03 05:00:05;;;;;;;14.50;9.67;;;;;;;0.73;96.15;101363.13;5040715;28;20238;-78
2023/03/03 05:02:31;;;;;;;15.37;9.90;;;;;;;0.66;95.74;101349.97;5041814;28;20209;-79
2023/03/03 05:04:58;;;;;;;16.43;10.90;;;;;;;0.66;96.87;101340.56;5041415;28;20202;-78
2023/03/03 05:07:24;;;;;;;14.07;9.23;;;;;;;0.69;97.14;101329.53;5040933;28;20257;-78
2023/03/03 05:09:51;;;;;;;13.63;10.40;;;;;;;0.66;97.15;101324.28;5040310;28;20233;-79
2023/03/03 05:12:17;;;;;;;12.30;9.73;;;;;;;0.66;97.04;101325.16;5040484;28;20231;-80
2023/03/03 05:14:44;;;;;;;13.33;10.20;;;;;;;0.71;96.98;101328.75;5041269;28;20260;-80
2023/03/03 05:17:12;;;;;;;12.67;9.70;;;;;;;0.77;96.55;101331.56;5040541;28;20206;-79
2023/03/03 05:19:38;;;;;;;12.43;9.33;;;;;;;0.78;96.79;101335.00;5040783;28;20320;-79
2023/03/03 05:22:04;;;;;;;15.50;10.10;;;;;;;0.78;96.66;101345.28;5039887;28;20206;-79
2023/03/03 05:24:31;;;;;;;14.53;10.23;;;;;;;0.76;96.46;101340.06;5039616;28;20286;-79
2023/03/03 05:26:57;;;;;;;14.03;9.73;;;;;;;0.82;96.63;101334.28;5041017;28;20209;-79
2023/03/03 05:29:25;;;;;;;14.93;10.93;;;;;;;0.84;96.77;101334.34;5040298;28;20226;-80
2023/03/03 05:31:51;;;;;;;16.13;10.20;;;;;;;0.88;96.33;101334.50;5040641;28;20228;-80
2023/03/03 05:34:19;;;;;;;18.80;11.53;;;;;;;0.82;96.17;101326.56;5040540;28;20208;-79
2023/03/03 05:36:45;;;;;;;19.63;11.70;;;;;;;0.77;96.61;101321.28;5040347;28;20215;-80
2023/03/03 05:39:11;;;;;;;15.87;10.73;;;;;;;0.80;97.36;101307.66;5053125;22;20237;-84
2023/03/03 05:41:38;;;;;;;18.67;11.80;;;;;;;0.77;96.94;101303.28;5040583;28;20271;-83
2023/03/03 05:44:04;;;;;;;16.70;10.47;;;;;;;0.67;97.49;101287.47;5040630;28;20233;-82
2023/03/03 05:46:31;;;;;;;21.03;11.83;;;;;;;0.73;98.31;101282.56;5039654;28;20263;-81
2023/03/03 05:48:57;;;;;;;18.80;11.80;;;;;;;0.65;97.64;101269.44;5039658;28;20599;-83
2023/03/03 05:51:25;;;;;;;19.30;12.43;;;;;;;0.62;97.85;101261.66;5044992;28;20202;-83
2023/03/03 05:53:51;;;;;;;25.37;12.37;;;;;;;0.55;98.78;101269.94;5047157;28;20206;-83
2023/03/03 05:56:18;;;;;;;19.87;12.00;;;;;;;0.48;99.52;101248.31;5043682;28;20237;-83
2023/03/03 05:58:44;;;;;;;20.03;12.33;;;;;;;0.53;99.11;101248.47;5060350;28;20226;-82
2023/03/03 06:01:10;;;;;;;17.93;11.50;;;;;;;0.29;99.68;101235.66;5060176;28;20201;-83
2023/03/03 06:03:37;;;;;;;25.97;12.87;;;;;;;0.42;100.00;101217.28;5059563;28;20208;-81
2023/03/03 06:06:03;;;;;;;27.80;12.93;;;;;;;0.27;100.00;101212.47;5059711;28;20264;-83
2023/03/03 06:08:31;;;;;;;21.70;13.03;;;;;;;0.18;100.00;101201.91;5059638;28;20232;-83
2023/03/03 06:10:58;;;;;;;26.07;12.80;;;;;;;0.31;100.00;101187.78;5059950;28;20213;-83
2023/03/03 06:13:24;;;;;;;25.47;13.07;;;;;;;0.42;100.00;101183.91;5059226;28;20231;-82
2023/03/03 06:15:50;;;;;;;22.97;12.53;;;;;;;0.50;100.00;101185.03;5058948;28;20213;-82
2023/03/03 06:18:17;;;;;;;25.33;12.10;;;;;;;0.63;100.00;101203.44;5059004;28;20228;-82
2023/03/03 06:20:43;;;;;;;19.73;11.53;;;;;;;0.71;100.00;101218.25;5058327;28;20263;-83
2023/03/03 06:23:10;;;;;;;17.70;11.53;;;;;;;0.76;100.00;101228.72;5052485;28;20213;-82
2023/03/03 06:25:39;;;;;;;18.00;11.20;;;;;;;0.85;100.00;101246.13;5058566;28;20213;-83
2023/03/03 06:28:05;;;;;;;22.87;12.33;;;;;;;0.90;99.59;101276.31;5059718;28;20230;-82
2023/03/03 06:30:31;;;;;;;20.13;11.90;;;;;;;0.92;98.47;101292.66;5058974;28;20270;-83
2023/03/03 06:32:58;;;;;;;20.23;11.70;;;;;;;0.81;98.89;101311.09;5059471;28;20231;-83
2023/03/03 06:35:24;;;;;;;26.17;12.93;;;;;;;0.91;98.58;101314.06;5058097;28;20588;-82
2023/03/03 06:37:51;;;;;;;20.87;11.27;;;;;;;0.94;98.15;101321.00;5058413;28;20443;-83
2023/03/03 06:40:17;;;;;;;22.47;13.00;;;;;;;0.94;97.96;101333.84;5058555;28;20224;-83
2023/03/03 06:42:45;;;;;;;26.67;12.53;;;;;;;0.96;98.07;101338.19;5059218;28;20251;-81
2023/03/03 06:45:11;;;;;;;22.03;12.50;;;;;;;0.99;97.58;101335.75;5058223;28;20266;-82
2023/03/03 06:47:38;;;;;;;23.70;13.33;;;;;;;0.87;98.00;101331.88;5057687;28;20228;-82
2023/03/03 06:50:05;;;;;;;23.90;13.13;;;;;;;0.93;99.26;101329.50;5056982;28;20250;-82
2023/03/03 06:52:31;;;;;;;25.37;13.17;;;;;;;0.99;99.25;101320.34;5054058;28;20260;-80
2023/03/03 06:55:00;;;;;;;32.77;13.27;;;;;;;0.97;98.68;101328.78;5053705;28;20205;-82
2023/03/03 06:57:28;;;;;;;22.40;12.00;;;;;;;1.10;98.08;101330.97;5057666;28;20475;-83
2023/03/03 06:59:59;;;;;;;32.67;13.63;;;;;;;1.13;97.80;101350.75;5057022;28;20246;-83
2023/03/03 07:02:25;;;;;;;29.27;13.20;;;;;;;1.13;96.82;101358.47;5057656;28;20209;-82
2023/03/03 07:04:53;;;;;;;27.90;13.53;;;;;;;0.90;97.25;101371.41;5056300;28;20212;-83
2023/03/03 07:07:23;;;;;;;32.03;13.53;;;;;;;0.89;97.85;101361.06;5056903;28;20257;-81
2023/03/03 07:09:52;;;;;;;33.00;13.83;;;;;;;0.87;99.12;101344.72;5055994;28;20236;-81
2023/03/03 07:12:21;;;;;;;30.50;13.43;;;;;;;0.90;99.11;101337.13;5054303;28;20227;-83
2023/03/03 07:14:54;;;;;;;25.03;13.27;;;;;;;0.73;98.84;101339.09;5054897;28;20867;-81
2023/03/03 07:17:24;;;;;;;30.07;13.70;;;;;;;0.78;99.91;101333.28;5054747;28;20206;-82
2023/03/03 07:19:50;;;;;;;25.30;12.63;;;;;;;0.83;99.48;101323.16;5054803;28;20279;-81
2023/03/03 07:22:19;;;;;;;38.67;15.53;;;;;;;0.94;99.50;101321.00;5053093;28;20728;-81
2023/03/03 07:24:46;;;;;;;32.00;14.83;;;;;;;1.03;100.00;101321.31;5049525;28;20204;-81
2023/03/03 07:27:19;;;;;;;26.53;13.67;;;;;;;1.07;100.00;101324.84;5054218;28;20293;-81
2023/03/03 07:29:47;;;;;;;33.43;14.17;;;;;;;1.06;99.66;101328.25;5054409;28;20226;-81
2023/03/03 07:32:25;;;;;;;24.80;13.17;;;;;;;1.07;99.58;101332.56;5053685;28;20227;-80
2023/03/03 07:34:54;;;;;;;28.37;13.93;;;;;;;1.07;98.67;101348.88;5054622;28;20207;-81
2023/03/03 07:37:28;;;;;;;30.73;13.60;;;;;;;0.84;99.28;101348.06;5056086;28;20237;-82
2023/03/03 07:39:55;;;;;;;38.63;14.63;;;;;;;0.72;99.84;101347.63;5056026;28;20599;-82
2023/03/03 07:42:26;;;;;;;39.80;14.33;;;;;;;0.70;100.00;101324.44;5055578;28;20207;-81
2023/03/03 07:44:54;;;;;;;29.40;13.70;;;;;;;0.49;100.00;101308.25;5055075;28;20202;-80
2023/03/03 07:47:25;;;;;;;39.70;17.23;;;;;;;0.56;100.00;101298.25;5055331;28;20283;-80
2023/03/03 07:49:53;;;;;;;42.13;15.93;;;;;;;0.43;100.00;101277.22;5055683;28;20226;-82
2023/03/03 07:52:32;;;;;;;37.70;14.83;;;;;;;0.51;100.00;101270.66;5052675;28;20258;-82
2023/03/03 07:55:02;;;;;;;42.93;14.63;;;;;;;0.32;100.00;101264.00;5049247;28;20268;-81
2023/03/03 07:57:36;;;;;;;31.63;16.03;;;;;;;0.24;100.00;101244.84;5053663;28;20202;-80
2023/03/03 08:00:51;;;;;;;44.70;16.70;;;;;;;0.50;100.00;101244.09;5053108;28;20263;-80
2023/03/03 08:03:20;;;;;;;43.90;16.33;;;;;;;0.67;100.00;101249.81;5052730;28;20199;-82
2023/03/03 08:05:48;;;;;;;41.83;15.97;;;;;;;0.82;100.00;101252.03;5053231;28;20206;-81
2023/03/03 08:08:28;;;;;;;46.13;17.90;;;;;;;0.66;100.00;101262.63;5053328;28;20272;-81
2023/03/03 08:10:55;;;;;;;45.20;17.50;;;;;;;0.61;100.00;101254.75;5053172;28;20223;-81
2023/03/03 08:13:23;;;;;;;58.47;17.90;;;;;;;0.56;100.00;101258.88;5052646;28;20276;-81
2023/03/03 08:15:52;;;;;;;49.00;18.00;;;;;;;0.63;100.00;101254.81;5052642;28;20261;-81
2023/03/03 08:18:24;;;;;;;62.53;17.97;;;;;;;0.72;100.00;101260.28;5052829;28;20795;-81
2023/03/03 08:20:52;;;;;;;56.30;18.90;;;;;;;0.57;100.00;101258.03;5053108;28;20270;-82
2023/03/03 08:23:20;;;;;;;56.73;19.03;;;;;;;0.58;100.00;101250.38;5045874;28;20221;-82
2023/03/03 08:25:49;;;;;;;53.63;17.20;;;;;;;0.62;100.00;101258.22;5053005;28;20580;-82
2023/03/03 08:28:15;;;;;;;45.40;16.87;;;;;;;0.75;100.00;101257.78;5052532;28;20234;-81
2023/03/03 08:30:43;;;;;;;47.37;16.73;;;;;;;0.84;100.00;101258.13;5052811;28;20206;-82
2023/03/03 08:33:09;;;;;;;49.60;17.97;;;;;;;0.99;100.00;101262.88;5052277;28;20228;-80
2023/03/03 08:35:38;;;;;;;45.33;17.63;;;;;;;0.91;100.00;101279.75;5052458;28;20209;-80
2023/03/03 08:38:05;;;;;;;51.17;17.93;;;;;;;1.04;100.00;101283.63;5052446;28;20207;-81
2023/03/03 08:40:32;;;;;;;42.77;18.30;;;;;;;1.17;100.00;101289.22;5052437;28;20207;-82
2023/03/03 08:42:58;;;;;;;37.70;15.33;;;;;;;1.21;100.00;101300.50;5052999;28;20204;-82
2023/03/03 08:45:26;;;;;;;37.10;15.80;;;;;;;1.10;100.00;101320.69;5054496;28;20206;-82
2023/03/03 08:47:52;;;;;;;40.70;17.37;;;;;;;0.88;100.00;101325.91;5056713;28;20208;-81
2023/03/03 08:50:19;;;;;;;31.80;15.40;;;;;;;1.08;100.00;101324.03;5056703;28;20266;-83
2023/03/03 08:52:47;;;;;;;33.87;15.23;;;;;;;1.12;100.00;101331.03;5050620;28;20242;-81
2023/03/03 08:55:14;;;;;;;36.37;16.53;;;;;;;1.09;100.00;101339.50;5053074;28;20209;-82
2023/03/03 08:57:40;;;;;;;36.20;16.53;;;;;;;1.14;100.00;101347.38;5055743;28;20209;-82
2023/03/03 09:00:09;;;;;;;30.90;15.70;;;;;;;1.22;100.00;101355.34;5055500;28;20781;-82
2023/03/03 09:02:35;;;;;;;34.30;15.40;;;;;;;1.19;100.00;101359.56;5055391;28;20228;-82
2023/03/03 09:05:02;;;;;;;38.00;14.67;;;;;;;1.13;100.00;101368.75;5055231;28;20254;-82
2023/03/03 09:07:28;;;;;;;32.07;16.33;;;;;;;1.18;100.00;101355.22;5055576;28;20258;-81
2023/03/03 09:09:56;;;;;;;33.27;15.40;;;;;;;1.34;100.00;101359.19;5055472;28;20225;-83
2023/03/03 09:12:27;;;;;;;31.40;14.70;;;;;;;1.07;100.00;101384.88;5056175;28;20203;-82
2023/03/03 09:14:56;;;;;;;31.93;14.00;;;;;;;1.11;100.00;101384.16;5054895;28;20745;-81
2023/03/03 09:17:25;;;;;;;35.57;15.87;;;;;;;1.04;100.00;101387.31;5055441;28;20266;-82
2023/03/03 09:19:52;;;;;;;29.90;14.80;;;;;;;1.10;100.00;101376.38;5055591;28;20227;-83
2023/03/03 09:22:21;;;;;;;32.60;14.67;;;;;;;1.27;100.00;101371.78;5053883;28;20259;-82
2023/03/03 09:24:49;;;;;;;27.97;14.53;;;;;;;0.98;100.00;101367.41;5049708;28;20208;-83
2023/03/03 09:27:22;;;;;;;33.20;15.83;;;;;;;1.22;100.00;101355.34;5054586;28;20682;-82
2023/03/03 09:29:49;;;;;;;30.07;15.37;;;;;;;1.21;100.00;101351.03;5054820;28;20232;-81
2023/03/03 09:32:26;;;;;;;31.93;15.53;;;;;;;1.19;100.00;101351.84;5054921;28;20668;-81
2023/03/03 09:34:53;;;;;;;30.03;15.43;;;;;;;1.12;100.00;101347.31;5052362;28;20688;-81
2023/03/03 09:37:23;;;;;;;37.90;15.93;;;;;;;1.15;100.00;101343.97;5053498;28;20324;-82
2023/03/03 09:39:51;;;;;;;33.07;14.67;;;;;;;1.28;100.00;101340.13;5047067;28;20229;-81
2023/03/03 09:42:42;;;;;;;34.20;16.63;;;;;;;1.32;100.00;101348.00;5050599;28;20202;-81
2023/03/03 09:45:18;;;;;;;31.03;15.60;;;;;;;1.38;100.00;101362.75;5032258;28;20231;-81
2023/03/03 09:48:00;;;;;;;30.93;14.27;;;;;;;1.29;100.00;101370.16;5054864;28;20210;-80
2023/03/03 09:50:36;;;;;;;32.97;15.47;;;;;;;1.07;100.00;101358.25;5054407;28;20213;-81
2023/03/03 09:53:15;;;;;;;29.43;15.33;;;;;;;0.96;100.00;101345.91;5023984;28;20232;-83
2023/03/03 09:55:50;;;;;;;25.17;14.00;;;;;;;1.21;100.00;101333.00;5053121;28;20260;-81
2023/03/03 09:58:30;;;;;;;23.00;13.03;;;;;;;1.13;100.00;101337.91;5053571;28;20843;-83
2023/03/03 10:01:13;;;;;;;22.13;14.03;;;;;;;1.00;100.00;101346.91;5043839;28;20202;-82
2023/03/03 10:03:56;;;;;;;28.47;14.80;;;;;;;1.05;100.00;101340.25;5054120;28;20199;-81
2023/03/03 10:06:28;;;;;;;22.67;14.30;;;;;;;1.14;100.00;101337.97;5051427;28;20206;-81
2023/03/03 10:09:24;;;;;;;22.93;13.03;;;;;;;1.24;100.00;101346.00;5053959;28;20233;-81
2023/03/03 10:11:58;;;;;;;29.60;13.57;;;;;;;1.73;100.00;101325.31;5034603;28;20209;-82
2023/03/03 10:14:47;;;;;;;18.30;12.40;;;;;;;1.83;100.00;101298.16;5034762;28;20251;-81
2023/03/03 10:17:30;;;;;;;25.87;13.03;;;;;;;1.97;100.00;101321.75;5034632;28;20222;-82
2023/03/03 10:20:14;;;;;;;20.80;13.30;;;;;;;2.17;100.00;101317.19;5032623;28;20287;-82
2023/03/03 10:22:51;;;;;;;28.33;16.43;;;;;;;2.31;100.00;101310.72;5034022;28;20213;-83
2023/03/03 10:25:28;;;;;;;25.67;14.03;;;;;;;2.53;100.00;101306.19;5034752;28;20571;-84
2023/03/03 10:28:30;;;;;;;29.83;16.57;;;;;;;1.91;99.96;101371.34;5034672;28;20209;-82
2023/03/03 10:31:07;;;;;;;34.77;16.70;;;;;;;2.15;100.00;101390.94;5034278;28;20212;-82
2023/03/03 10:33:41;;;;;;;33.57;15.83;;;;;;;2.27;99.20;101418.78;5034376;28;20222;-82
2023/03/03 10:36:25;;;;;;;29.77;15.93;;;;;;;2.50;99.49;101409.19;5042949;28;20205;-83
2023/03/03 10:39:01;;;;;;;20.30;14.30;;;;;;;2.68;97.83;101439.78;5054303;28;20237;-83
2023/03/03 10:41:43;;;;;;;19.00;13.60;;;;;;;2.86;97.74;101449.75;5054284;28;20756;-82
2023/03/03 10:44:32;;;;;;;23.37;14.90;;;;;;;2.38;95.60;101502.44;5056157;28;20204;-82
2023/03/03 10:47:28;;;;;;;27.40;15.10;;;;;;;2.04;96.18;101526.22;5056069;28;20209;-82
2023/03/03 10:50:08;;;;;;;24.33;14.97;;;;;;;1.97;96.72;101505.41;5055408;28;20277;-82
2023/03/03 10:52:42;;;;;;;25.87;14.83;;;;;;;1.86;96.39;101501.59;5055666;28;20213;-85
2023/03/03 10:55:21;;;;;;;23.90;13.47;;;;;;;2.06;98.52;101486.84;5055597;28;20233;-83
2023/03/03 10:57:56;;;;;;;28.40;15.33;;;;;;;2.29;99.14;101468.66;5055114;28;20208;-83
2023/03/03 11:00:27;;;;;;;34.53;16.53;;;;;;;2.35;99.00;101458.53;5054852;28;20276;-85
2023/03/03 11:03:23;;;;;;;33.07;18.27;;;;;;;2.56;99.36;101445.44;5055403;28;20213;-84
2023/03/03 11:05:51;;;;;;;32.00;16.30;;;;;;;2.48;95.71;101501.91;5049877;28;20669;-84
2023/03/03 11:08:22;;;;;;;30.43;16.53;;;;;;;2.48;95.44;101521.63;5054953;28;20262;-81
2023/03/03 11:10:54;;;;;;;30.47;16.83;;;;;;;2.31;95.57;101528.84;5056490;28;20206;-83
2023/03/03 11:13:28;;;;;;;33.03;17.37;;;;;;;2.56;96.40;101518.47;5055553;28;20680;-84
2023/03/03 11:16:09;;;;;;;36.47;18.20;;;;;;;2.77;95.60;101505.38;5055772;28;20204;-84
2023/03/03 11:18:47;;;;;;;29.80;16.67;;;;;;;2.81;93.90;101544.13;5056514;28;20233;-80
2023/03/03 11:21:22;;;;;;;30.83;17.67;;;;;;;2.94;93.66;101559.16;5056450;28;20186;-83
2023/03/03 11:24:01;;;;;;;36.67;17.23;;;;;;;3.06;93.48;101559.53;5056126;28;20269;-83
2023/03/03 11:26:44;;;;;;;37.23;18.33;;;;;;;2.89;91.44;101596.81;5055948;28;20586;-84
2023/03/03 11:29:30;;;;;;;33.07;16.53;;;;;;;2.78;91.89;101612.81;5056103;28;20812;-82